sensor_id;sensor_type;location;lat;lon;timestamp;temperature;humidity
5017;DHT22;2527;50.892;16.706;2024-03-23T00:54:42;13.80;99.90
5017;DHT22;2527;50.892;16.706;2024-03-23T00:57:09;13.80;99.90
5017;DHT22;2527;50.892;16.706;2024-03-23T00:59:36;13.80;99.90
5017;DHT22;2527;50.892;16.706;2024-03-23T01:02:01;13.80;99.90
5017;DHT22;2527;50.892;16.706;2024-03-23T01:04:28;13.80;99.90
5017;DHT22;2527;50.892;16.706;2024-03-23T01:06:53;13.70;99.90
5017;DHT22;2527;50.892;16.706;2024-03-23T01:09:20;13.80;99.90
5017;DHT22;2527;50.892;16.706;2024-03-23T01:11:46;13.80;99.90
5017;DHT22;2527;50.892;16.706;2024-03-23T01:14:12;13.80;99.90
5017;DHT22;2527;50.892;16.706;2024-03-23T01:16:37;13.80;99.90
5017;DHT22;2527;50.892;16.706;2024-03-23T01:19:03;13.80;99.90
5017;DHT22;2527;50.892;16.706;2024-03-23T01:21:28;13.80;99.90
5017;DHT22;2527;50.892;16.706;2024-03-23T01:23:55;13.80;99.90
5017;DHT22;2527;50.892;16.706;2024-03-23T01:26:21;13.80;99.90
5017;DHT22;2527;50.892;16.706;2024-03-23T01:28:47;13.80;99.90
5017;DHT22;2527;50.892;16.706;2024-03-23T01:31:13;13.90;99.90
5017;DHT22;2527;50.892;16.706;2024-03-23T01:33:38;13.80;99.90
5017;DHT22;2527;50.892;16.706;2024-03-23T01:36:05;13.90;99.90
5017;DHT22;2527;50.892;16.706;2024-03-23T01:38:30;13.80;99.90
5017;DHT22;2527;50.892;16.706;2024-03-23T01:40:57;13.90;99.90
5017;DHT22;2527;50.892;16.706;2024-03-23T01:43:22;13.80;99.90
5017;DHT22;2527;50.892;16.706;2024-03-23T01:45:48;13.90;99.90
5017;DHT22;2527;50.892;16.706;2024-03-23T01:48:20;13.90;99.90
5017;DHT22;2527;50.892;16.706;2024-03-23T01:50:48;13.90;99.90
5017;DHT22;2527;50.892;16.706;2024-03-23T01:53:14;13.90;99.90
5017;DHT22;2527;50.892;16.706;2024-03-23T01:55:42;13.90;99.90
5017;DHT22;2527;50.892;16.706;2024-03-23T01:58:08;14.00;99.90
5017;DHT22;2527;50.892;16.706;2024-03-23T02:00:34;14.00;99.90
5017;DHT22;2527;50.892;16.706;2024-03-23T02:02:59;14.00;99.90
5017;DHT22;2527;50.892;16.706;2024-03-23T02:05:25;14.10;99.90
5017;DHT22;2527;50.892;16.706;2024-03-23T02:07:50;12.80;99.90
5017;DHT22;2527;50.892;16.706;2024-03-23T02:10:16;14.00;99.90
5017;DHT22;2527;50.892;16.706;2024-03-23T02:12:42;14.00;99.90
5017;DHT22;2527;50.892;16.706;2024-03-23T02:15:08;14.00;99.90
5017;DHT22;2527;50.892;16.706;2024-03-23T02:17:35;14.00;99.90
5017;DHT22;2527;50.892;16.706;2024-03-23T02:20:02;14.00;99.90
5017;DHT22;2527;50.892;16.706;2024-03-23T02:22:38;14.00;99.90
5017;DHT22;2527;50.892;16.706;2024-03-23T02:25:04;14.10;99.90
5017;DHT22;2527;50.892;16.706;2024-03-23T02:27:30;14.10;99.90
5017;DHT22;2527;50.892;16.706;2024-03-23T02:29:55;14.10;99.90
5017;DHT22;2527;50.892;16.706;2024-03-23T02:32:21;14.10;99.90
5017;DHT22;2527;50.892;16.706;2024-03-23T02:34:46;14.10;99.90
5017;DHT22;2527;50.892;16.706;2024-03-23T02:37:12;14.20;99.90
5017;DHT22;2527;50.892;16.706;2024-03-23T02:39:39;14.20;99.90
5017;DHT22;2527;50.892;16.706;2024-03-23T02:42:05;14.20;99.90
5017;DHT22;2527;50.892;16.706;2024-03-23T02:44:31;14.20;99.90
5017;DHT22;2527;50.892;16.706;2024-03-23T02:46:57;14.20;99.90
5017;DHT22;2527;50.892;16.706;2024-03-23T02:49:25;14.20;99.90
5017;DHT22;2527;50.892;16.706;2024-03-23T02:51:53;14.20;99.90
5017;DHT22;2527;50.892;16.706;2024-03-23T02:54:19;15.20;99.90
5017;DHT22;2527;50.892;16.706;2024-03-23T02:56:45;14.20;99.90
5017;DHT22;2527;50.892;16.706;2024-03-23T02:59:10;14.20;99.90
5017;DHT22;2527;50.892;16.706;2024-03-23T03:01:36;14.20;99.90
5017;DHT22;2527;50.892;16.706;2024-03-23T03:04:01;14.20;99.90
5017;DHT22;2527;50.892;16.706;2024-03-23T03:06:30;14.20;99.90
5017;DHT22;2527;50.892;16.706;2024-03-23T03:08:56;14.20;99.90
5017;DHT22;2527;50.892;16.706;2024-03-23T03:11:21;14.20;99.90
5017;DHT22;2527;50.892;16.706;2024-03-23T03:13:48;14.20;99.90
5017;DHT22;2527;50.892;16.706;2024-03-23T03:16:13;14.20;99.90
5017;DHT22;2527;50.892;16.706;2024-03-23T03:18:44;14.20;99.90
5017;DHT22;2527;50.892;16.706;2024-03-23T03:21:12;14.20;99.90
5017;DHT22;2527;50.892;16.706;2024-03-23T03:23:38;14.10;99.90
5017;DHT22;2527;50.892;16.706;2024-03-23T03:26:04;14.10;99.90
5017;DHT22;2527;50.892;16.706;2024-03-23T03:28:34;14.10;99.90
5017;DHT22;2527;50.892;16.706;2024-03-23T03:31:00;14.20;99.90
5017;DHT22;2527;50.892;16.706;2024-03-23T03:33:26;14.20;99.90
5017;DHT22;2527;50.892;16.706;2024-03-23T03:35:52;14.20;99.90
5017;DHT22;2527;50.892;16.706;2024-03-23T03:38:18;14.20;99.90
5017;DHT22;2527;50.892;16.706;2024-03-23T03:40:45;14.20;99.90
5017;DHT22;2527;50.892;16.706;2024-03-23T03:43:11;14.20;99.90
5017;DHT22;2527;50.892;16.706;2024-03-23T03:45:37;14.20;99.90
5017;DHT22;2527;50.892;16.706;2024-03-23T03:48:03;14.20;99.90
5017;DHT22;2527;50.892;16.706;2024-03-23T03:50:29;14.20;99.90
5017;DHT22;2527;50.892;16.706;2024-03-23T03:52:56;14.20;99.90
5017;DHT22;2527;50.892;16.706;2024-03-23T03:55:21;14.20;99.90
5017;DHT22;2527;50.892;16.706;2024-03-23T03:57:50;14.20;99.90
5017;DHT22;2527;50.892;16.706;2024-03-23T04:00:18;14.20;99.90
5017;DHT22;2527;50.892;16.706;2024-03-23T04:02:44;14.10;99.90
5017;DHT22;2527;50.892;16.706;2024-03-23T04:05:09;14.10;99.90
5017;DHT22;2527;50.892;16.706;2024-03-23T04:07:35;14.10;99.90
5017;DHT22;2527;50.892;16.706;2024-03-23T04:10:00;14.10;99.90
5017;DHT22;2527;50.892;16.706;2024-03-23T04:12:26;14.10;99.90
5017;DHT22;2527;50.892;16.706;2024-03-23T04:14:53;14.10;99.90
5017;DHT22;2527;50.892;16.706;2024-03-23T04:17:19;14.20;99.90
5017;DHT22;2527;50.892;16.706;2024-03-23T04:19:45;14.20;99.90
5017;DHT22;2527;50.892;16.706;2024-03-23T04:22:11;14.20;99.90
5017;DHT22;2527;50.892;16.706;2024-03-23T04:24:40;14.20;99.90
5017;DHT22;2527;50.892;16.706;2024-03-23T04:27:08;14.20;99.90
5017;DHT22;2527;50.892;16.706;2024-03-23T04:29:33;14.20;99.90
5017;DHT22;2527;50.892;16.706;2024-03-23T04:31:59;14.20;99.90
5017;DHT22;2527;50.892;16.706;2024-03-23T04:34:26;14.20;99.90
5017;DHT22;2527;50.892;16.706;2024-03-23T04:36:51;14.20;99.90
5017;DHT22;2527;50.892;16.706;2024-03-23T04:39:18;14.20;99.90
5017;DHT22;2527;50.892;16.706;2024-03-23T04:41:45;14.10;99.90
5017;DHT22;2527;50.892;16.706;2024-03-23T04:44:10;14.10;99.90
5017;DHT22;2527;50.892;16.706;2024-03-23T04:46:36;14.20;99.90
5017;DHT22;2527;50.892;16.706;2024-03-23T04:49:02;14.10;99.90
5017;DHT22;2527;50.892;16.706;2024-03-23T04:51:34;14.00;99.90
5017;DHT22;2527;50.892;16.706;2024-03-23T04:54:00;14.00;99.90
5017;DHT22;2527;50.892;16.706;2024-03-23T04:56:25;14.00;99.90
5017;DHT22;2527;50.892;16.706;2024-03-23T04:58:51;14.00;99.90
5017;DHT22;2527;50.892;16.706;2024-03-23T05:01:17;13.90;99.90
5017;DHT22;2527;50.892;16.706;2024-03-23T05:03:43;13.90;99.90
5017;DHT22;2527;50.892;16.706;2024-03-23T05:06:08;13.90;99.90
5017;DHT22;2527;50.892;16.706;2024-03-23T05:08:34;13.90;99.90
5017;DHT22;2527;50.892;16.706;2024-03-23T05:11:01;13.90;99.90
5017;DHT22;2527;50.892;16.706;2024-03-23T05:13:26;13.80;99.90
5017;DHT22;2527;50.892;16.706;2024-03-23T05:15:53;13.80;99.90
5017;DHT22;2527;50.892;16.706;2024-03-23T05:18:18;13.80;99.90
5017;DHT22;2527;50.892;16.706;2024-03-23T05:20:44;13.80;99.90
5017;DHT22;2527;50.892;16.706;2024-03-23T05:23:10;13.80;99.90
5017;DHT22;2527;50.892;16.706;2024-03-23T05:25:35;13.80;99.90
5017;DHT22;2527;50.892;16.706;2024-03-23T05:28:01;13.80;99.90
5017;DHT22;2527;50.892;16.706;2024-03-23T05:30:28;13.80;99.90
5017;DHT22;2527;50.892;16.706;2024-03-23T05:32:54;13.80;99.90
5017;DHT22;2527;50.892;16.706;2024-03-23T05:35:20;13.80;99.90
5017;DHT22;2527;50.892;16.706;2024-03-23T05:37:46;13.80;99.90
5017;DHT22;2527;50.892;16.706;2024-03-23T05:40:12;13.80;99.90
5017;DHT22;2527;50.892;16.706;2024-03-23T05:42:40;13.80;99.90
5017;DHT22;2527;50.892;16.706;2024-03-23T05:45:06;13.80;99.90
5017;DHT22;2527;50.892;16.706;2024-03-23T05:47:32;13.80;99.90
5017;DHT22;2527;50.892;16.706;2024-03-23T05:49:58;13.80;99.90
5017;DHT22;2527;50.892;16.706;2024-03-23T05:52:24;13.80;99.90
5017;DHT22;2527;50.892;16.706;2024-03-23T05:54:54;13.80;99.90
5017;DHT22;2527;50.892;16.706;2024-03-23T05:57:23;13.80;99.90
5017;DHT22;2527;50.892;16.706;2024-03-23T05:59:50;13.80;99.90
5017;DHT22;2527;50.892;16.706;2024-03-23T06:02:16;13.90;99.90
5017;DHT22;2527;50.892;16.706;2024-03-23T06:04:42;13.90;99.90
5017;DHT22;2527;50.892;16.706;2024-03-23T06:07:07;13.90;99.90
5017;DHT22;2527;50.892;16.706;2024-03-23T06:09:39;13.90;99.90
5017;DHT22;2527;50.892;16.706;2024-03-23T06:12:04;14.00;99.90
5017;DHT22;2527;50.892;16.706;2024-03-23T06:14:32;14.10;99.90
5017;DHT22;2527;50.892;16.706;2024-03-23T06:16:58;14.10;99.90
5017;DHT22;2527;50.892;16.706;2024-03-23T06:19:25;14.20;99.90
5017;DHT22;2527;50.892;16.706;2024-03-23T06:21:54;14.20;99.90
5017;DHT22;2527;50.892;16.706;2024-03-23T06:24:21;14.30;99.90
5017;DHT22;2527;50.892;16.706;2024-03-23T06:26:46;14.30;99.90
5017;DHT22;2527;50.892;16.706;2024-03-23T06:29:12;14.40;99.90
5017;DHT22;2527;50.892;16.706;2024-03-23T06:31:38;14.40;99.90
5017;DHT22;2527;50.892;16.706;2024-03-23T06:34:04;14.40;99.90
5017;DHT22;2527;50.892;16.706;2024-03-23T06:36:30;14.50;99.90
5017;DHT22;2527;50.892;16.706;2024-03-23T06:38:56;14.50;99.90
5017;DHT22;2527;50.892;16.706;2024-03-23T06:41:22;14.50;99.90
5017;DHT22;2527;50.892;16.706;2024-03-23T06:43:48;14.60;99.90
5017;DHT22;2527;50.892;16.706;2024-03-23T06:46:14;14.60;99.90
5017;DHT22;2527;50.892;16.706;2024-03-23T06:48:39;14.60;99.90
5017;DHT22;2527;50.892;16.706;2024-03-23T06:51:05;14.70;99.90
5017;DHT22;2527;50.892;16.706;2024-03-23T06:53:32;14.70;99.90
5017;DHT22;2527;50.892;16.706;2024-03-23T06:55:57;14.70;99.90
5017;DHT22;2527;50.892;16.706;2024-03-23T06:58:23;14.80;99.90
5017;DHT22;2527;50.892;16.706;2024-03-23T07:00:50;14.80;99.90
5017;DHT22;2527;50.892;16.706;2024-03-23T07:03:19;14.80;99.90
5017;DHT22;2527;50.892;16.706;2024-03-23T07:05:45;15.00;99.90
5017;DHT22;2527;50.892;16.706;2024-03-23T07:08:11;15.10;99.90
5017;DHT22;2527;50.892;16.706;2024-03-23T07:10:41;15.20;99.90
5017;DHT22;2527;50.892;16.706;2024-03-23T07:13:06;15.30;99.90
5017;DHT22;2527;50.892;16.706;2024-03-23T07:15:33;15.40;99.90
5017;DHT22;2527;50.892;16.706;2024-03-23T07:17:59;15.60;99.90
5017;DHT22;2527;50.892;16.706;2024-03-23T07:20:26;15.70;99.90
5017;DHT22;2527;50.892;16.706;2024-03-23T07:22:52;15.80;99.90
5017;DHT22;2527;50.892;16.706;2024-03-23T07:25:18;15.90;99.90
5017;DHT22;2527;50.892;16.706;2024-03-23T07:27:45;16.00;99.90
5017;DHT22;2527;50.892;16.706;2024-03-23T07:30:11;16.10;99.90
5017;DHT22;2527;50.892;16.706;2024-03-23T07:32:37;16.20;99.90
5017;DHT22;2527;50.892;16.706;2024-03-23T07:35:03;16.40;99.90
5017;DHT22;2527;50.892;16.706;2024-03-23T07:37:29;16.50;99.90
5017;DHT22;2527;50.892;16.706;2024-03-23T07:39:55;16.10;99.90
5017;DHT22;2527;50.892;16.706;2024-03-23T07:42:22;16.80;99.90
5017;DHT22;2527;50.892;16.706;2024-03-23T07:44:47;17.00;99.90
5017;DHT22;2527;50.892;16.706;2024-03-23T07:47:13;17.10;99.90
5017;DHT22;2527;50.892;16.706;2024-03-23T07:49:38;17.20;99.90
5017;DHT22;2527;50.892;16.706;2024-03-23T07:52:05;17.20;99.90
5017;DHT22;2527;50.892;16.706;2024-03-23T07:54:31;17.20;99.90
5017;DHT22;2527;50.892;16.706;2024-03-23T07:56:57;17.10;99.90
5017;DHT22;2527;50.892;16.706;2024-03-23T07:59:23;17.00;99.90
5017;DHT22;2527;50.892;16.706;2024-03-23T08:01:49;17.00;99.90
5017;DHT22;2527;50.892;16.706;2024-03-23T08:04:14;17.00;99.90
5017;DHT22;2527;50.892;16.706;2024-03-23T08:06:40;16.90;99.90
5017;DHT22;2527;50.892;16.706;2024-03-23T08:09:06;16.80;99.90
5017;DHT22;2527;50.892;16.706;2024-03-23T08:11:32;16.70;99.90
5017;DHT22;2527;50.892;16.706;2024-03-23T08:13:59;16.70;99.90
5017;DHT22;2527;50.892;16.706;2024-03-23T08:16:26;16.60;99.90
5017;DHT22;2527;50.892;16.706;2024-03-23T08:18:52;16.60;99.90
5017;DHT22;2527;50.892;16.706;2024-03-23T08:21:18;16.70;99.90
5017;DHT22;2527;50.892;16.706;2024-03-23T08:23:44;16.60;99.90
5017;DHT22;2527;50.892;16.706;2024-03-23T08:26:10;16.60;99.90
5017;DHT22;2527;50.892;16.706;2024-03-23T08:28:36;16.70;99.90
5017;DHT22;2527;50.892;16.706;2024-03-23T08:31:10;16.60;99.90
5017;DHT22;2527;50.892;16.706;2024-03-23T08:33:37;16.60;99.90
5017;DHT22;2527;50.892;16.706;2024-03-23T08:36:04;16.70;99.90
5017;DHT22;2527;50.892;16.706;2024-03-23T08:38:30;16.70;99.90
5017;DHT22;2527;50.892;16.706;2024-03-23T08:40:56;16.70;99.90
5017;DHT22;2527;50.892;16.706;2024-03-23T08:43:22;16.70;99.90
5017;DHT22;2527;50.892;16.706;2024-03-23T08:45:48;16.70;99.90
5017;DHT22;2527;50.892;16.706;2024-03-23T08:48:14;16.70;99.90
5017;DHT22;2527;50.892;16.706;2024-03-23T08:50:41;16.70;99.90
5017;DHT22;2527;50.892;16.706;2024-03-23T08:53:06;16.70;99.90
5017;DHT22;2527;50.892;16.706;2024-03-23T08:55:32;16.70;99.90
5017;DHT22;2527;50.892;16.706;2024-03-23T08:57:58;16.60;99.90
5017;DHT22;2527;50.892;16.706;2024-03-23T09:00:24;16.60;99.90
5017;DHT22;2527;50.892;16.706;2024-03-23T09:02:50;16.60;99.90
5017;DHT22;2527;50.892;16.706;2024-03-23T09:05:15;16.60;99.90
5017;DHT22;2527;50.892;16.706;2024-03-23T09:07:41;16.50;99.90
5017;DHT22;2527;50.892;16.706;2024-03-23T09:10:07;16.50;99.90
5017;DHT22;2527;50.892;16.706;2024-03-23T09:12:33;16.50;99.90
5017;DHT22;2527;50.892;16.706;2024-03-23T09:14:59;16.40;99.90
5017;DHT22;2527;50.892;16.706;2024-03-23T09:17:25;16.40;99.90
5017;DHT22;2527;50.892;16.706;2024-03-23T09:19:55;16.40;99.90
5017;DHT22;2527;50.892;16.706;2024-03-23T09:22:25;16.40;99.90
5017;DHT22;2527;50.892;16.706;2024-03-23T09:24:53;16.50;99.90
5017;DHT22;2527;50.892;16.706;2024-03-23T09:27:18;16.50;99.90
5017;DHT22;2527;50.892;16.706;2024-03-23T09:29:51;16.60;99.90
5017;DHT22;2527;50.892;16.706;2024-03-23T09:32:17;16.70;99.90
5017;DHT22;2527;50.892;16.706;2024-03-23T09:34:43;16.70;99.90
5017;DHT22;2527;50.892;16.706;2024-03-23T09:37:09;16.80;99.90
5017;DHT22;2527;50.892;16.706;2024-03-23T09:39:35;17.00;99.90
5017;DHT22;2527;50.892;16.706;2024-03-23T09:42:00;17.10;99.90
5017;DHT22;2527;50.892;16.706;2024-03-23T09:44:25;17.20;99.90
5017;DHT22;2527;50.892;16.706;2024-03-23T09:46:54;17.30;99.90
5017;DHT22;2527;50.892;16.706;2024-03-23T09:49:20;17.40;99.90
5017;DHT22;2527;50.892;16.706;2024-03-23T09:51:47;17.50;99.90
5017;DHT22;2527;50.892;16.706;2024-03-23T09:54:20;17.60;99.90
5017;DHT22;2527;50.892;16.706;2024-03-23T09:56:47;17.70;99.90
5017;DHT22;2527;50.892;16.706;2024-03-23T09:59:12;17.80;99.90
5017;DHT22;2527;50.892;16.706;2024-03-23T10:01:39;17.80;99.90
5017;DHT22;2527;50.892;16.706;2024-03-23T10:04:06;17.90;99.90
5017;DHT22;2527;50.892;16.706;2024-03-23T10:06:34;18.00;99.90
5017;DHT22;2527;50.892;16.706;2024-03-23T10:09:00;18.00;99.90
5017;DHT22;2527;50.892;16.706;2024-03-23T10:11:25;18.00;99.90
5017;DHT22;2527;50.892;16.706;2024-03-23T10:13:52;18.10;99.90
5017;DHT22;2527;50.892;16.706;2024-03-23T10:16:23;18.20;99.90
5017;DHT22;2527;50.892;16.706;2024-03-23T10:18:52;18.20;99.90
5017;DHT22;2527;50.892;16.706;2024-03-23T10:21:18;18.30;99.90
5017;DHT22;2527;50.892;16.706;2024-03-23T10:23:43;18.40;99.90
5017;DHT22;2527;50.892;16.706;2024-03-23T10:28:59;18.50;99.90
5017;DHT22;2527;50.892;16.706;2024-03-23T10:31:29;18.50;99.90
5017;DHT22;2527;50.892;16.706;2024-03-23T10:34:02;18.50;99.90
5017;DHT22;2527;50.892;16.706;2024-03-23T10:36:33;18.50;99.90
5017;DHT22;2527;50.892;16.706;2024-03-23T10:39:00;18.50;99.90
5017;DHT22;2527;50.892;16.706;2024-03-23T10:41:26;18.40;99.90
5017;DHT22;2527;50.892;16.706;2024-03-23T10:43:53;18.40;99.90
5017;DHT22;2527;50.892;16.706;2024-03-23T10:46:19;18.40;99.90
5017;DHT22;2527;50.892;16.706;2024-03-23T10:48:45;18.30;99.90
5017;DHT22;2527;50.892;16.706;2024-03-23T10:51:11;18.20;99.90
5017;DHT22;2527;50.892;16.706;2024-03-23T10:53:39;18.20;99.90
5017;DHT22;2527;50.892;16.706;2024-03-23T10:56:06;18.10;99.90
5017;DHT22;2527;50.892;16.706;2024-03-23T10:58:36;18.10;99.90
5017;DHT22;2527;50.892;16.706;2024-03-23T11:01:02;18.10;99.90
5017;DHT22;2527;50.892;16.706;2024-03-23T11:03:38;18.90;99.90
5017;DHT22;2527;50.892;16.706;2024-03-23T11:06:06;18.00;99.90
5017;DHT22;2527;50.892;16.706;2024-03-23T11:11:17;18.00;99.90
5017;DHT22;2527;50.892;16.706;2024-03-23T11:13:43;18.00;99.90
5017;DHT22;2527;50.892;16.706;2024-03-23T11:16:28;18.00;99.90
5017;DHT22;2527;50.892;16.706;2024-03-23T11:21:54;18.10;99.90
5017;DHT22;2527;50.892;16.706;2024-03-23T11:24:21;18.10;99.90
5017;DHT22;2527;50.892;16.706;2024-03-23T11:26:48;18.10;99.90
5017;DHT22;2527;50.892;16.706;2024-03-23T11:29:15;18.10;99.90
5017;DHT22;2527;50.892;16.706;2024-03-23T11:31:51;18.10;99.90
5017;DHT22;2527;50.892;16.706;2024-03-23T11:34:17;18.10;99.90
5017;DHT22;2527;50.892;16.706;2024-03-23T11:36:44;18.10;99.90
5017;DHT22;2527;50.892;16.706;2024-03-23T11:39:14;18.00;99.90
5017;DHT22;2527;50.892;16.706;2024-03-23T11:41:48;18.00;99.90
5017;DHT22;2527;50.892;16.706;2024-03-23T11:44:21;18.00;99.90
5017;DHT22;2527;50.892;16.706;2024-03-23T11:46:48;17.90;99.90
5017;DHT22;2527;50.892;16.706;2024-03-23T11:49:23;17.90;99.90
5017;DHT22;2527;50.892;16.706;2024-03-23T11:51:50;17.80;99.90
5017;DHT22;2527;50.892;16.706;2024-03-23T11:54:15;17.80;99.90
5017;DHT22;2527;50.892;16.706;2024-03-23T11:57:03;17.70;99.90
5017;DHT22;2527;50.892;16.706;2024-03-23T11:59:37;17.60;99.90
5017;DHT22;2527;50.892;16.706;2024-03-23T12:02:06;17.40;99.90
5017;DHT22;2527;50.892;16.706;2024-03-23T12:04:33;17.20;99.90
5017;DHT22;2527;50.892;16.706;2024-03-23T12:07:09;17.10;99.90
5017;DHT22;2527;50.892;16.706;2024-03-23T12:09:34;17.00;99.90
5017;DHT22;2527;50.892;16.706;2024-03-23T12:12:05;16.90;99.90
5017;DHT22;2527;50.892;16.706;2024-03-23T12:14:32;16.80;99.90
5017;DHT22;2527;50.892;16.706;2024-03-23T12:17:06;16.70;99.90
5017;DHT22;2527;50.892;16.706;2024-03-23T12:19:33;16.60;99.90
5017;DHT22;2527;50.892;16.706;2024-03-23T12:21:59;16.60;99.90
5017;DHT22;2527;50.892;16.706;2024-03-23T12:24:26;16.60;99.90
5017;DHT22;2527;50.892;16.706;2024-03-23T12:26:52;16.60;99.90
5017;DHT22;2527;50.892;16.706;2024-03-23T12:29:18;16.50;99.90
5017;DHT22;2527;50.892;16.706;2024-03-23T12:31:44;16.50;99.90
5017;DHT22;2527;50.892;16.706;2024-03-23T12:34:09;16.60;99.90
5017;DHT22;2527;50.892;16.706;2024-03-23T12:36:35;16.60;99.90
5017;DHT22;2527;50.892;16.706;2024-03-23T12:39:02;16.60;99.90
5017;DHT22;2527;50.892;16.706;2024-03-23T12:41:31;16.60;99.90
5017;DHT22;2527;50.892;16.706;2024-03-23T12:43:56;16.60;99.90
5017;DHT22;2527;50.892;16.706;2024-03-23T12:46:22;16.60;99.90
5017;DHT22;2527;50.892;16.706;2024-03-23T12:48:48;16.60;99.90
5017;DHT22;2527;50.892;16.706;2024-03-23T12:51:14;16.60;99.90
5017;DHT22;2527;50.892;16.706;2024-03-23T12:53:40;16.50;99.90
5017;DHT22;2527;50.892;16.706;2024-03-23T12:56:07;16.50;99.90
5017;DHT22;2527;50.892;16.706;2024-03-23T12:58:36;16.50;99.90
5017;DHT22;2527;50.892;16.706;2024-03-23T13:01:02;16.50;99.90
5017;DHT22;2527;50.892;16.706;2024-03-23T13:03:28;16.50;99.90
5017;DHT22;2527;50.892;16.706;2024-03-23T13:05:58;16.50;99.90
5017;DHT22;2527;50.892;16.706;2024-03-23T13:08:24;16.50;99.90
5017;DHT22;2527;50.892;16.706;2024-03-23T13:10:51;16.50;99.90
5017;DHT22;2527;50.892;16.706;2024-03-23T13:13:21;16.30;99.90
5017;DHT22;2527;50.892;16.706;2024-03-23T13:15:50;16.20;99.90
5017;DHT22;2527;50.892;16.706;2024-03-23T13:18:16;16.10;99.90
5017;DHT22;2527;50.892;16.706;2024-03-23T13:20:42;16.10;99.90
5017;DHT22;2527;50.892;16.706;2024-03-23T13:23:07;16.00;99.90
5017;DHT22;2527;50.892;16.706;2024-03-23T13:25:34;15.90;99.90
5017;DHT22;2527;50.892;16.706;2024-03-23T13:28:00;16.10;99.90
5017;DHT22;2527;50.892;16.706;2024-03-23T13:30:27;15.80;99.90
5017;DHT22;2527;50.892;16.706;2024-03-23T13:32:53;15.80;99.90
5017;DHT22;2527;50.892;16.706;2024-03-23T13:35:19;15.70;99.90
5017;DHT22;2527;50.892;16.706;2024-03-23T13:37:45;15.60;99.90
5017;DHT22;2527;50.892;16.706;2024-03-23T13:40:12;15.60;99.90
5017;DHT22;2527;50.892;16.706;2024-03-23T13:42:37;15.50;99.90
5017;DHT22;2527;50.892;16.706;2024-03-23T13:45:03;15.40;99.90
5017;DHT22;2527;50.892;16.706;2024-03-23T13:47:29;15.40;99.90
5017;DHT22;2527;50.892;16.706;2024-03-23T13:49:55;14.50;99.90
5017;DHT22;2527;50.892;16.706;2024-03-23T13:52:21;15.20;99.90
5017;DHT22;2527;50.892;16.706;2024-03-23T13:54:51;15.10;99.90
5017;DHT22;2527;50.892;16.706;2024-03-23T13:57:17;15.00;99.90
5017;DHT22;2527;50.892;16.706;2024-03-23T13:59:45;14.90;99.90
5017;DHT22;2527;50.892;16.706;2024-03-23T14:02:11;14.80;99.90
5017;DHT22;2527;50.892;16.706;2024-03-23T14:04:40;14.60;99.90
5017;DHT22;2527;50.892;16.706;2024-03-23T14:07:05;14.50;99.90
5017;DHT22;2527;50.892;16.706;2024-03-23T14:09:33;14.50;99.90
5017;DHT22;2527;50.892;16.706;2024-03-23T14:11:59;14.40;99.90
5017;DHT22;2527;50.892;16.706;2024-03-23T14:14:25;14.40;99.90
5017;DHT22;2527;50.892;16.706;2024-03-23T14:16:51;14.40;99.90
5017;DHT22;2527;50.892;16.706;2024-03-23T14:19:17;14.30;99.90
5017;DHT22;2527;50.892;16.706;2024-03-23T14:21:42;14.20;99.90
5017;DHT22;2527;50.892;16.706;2024-03-23T14:24:09;14.20;99.90
5017;DHT22;2527;50.892;16.706;2024-03-23T14:26:36;14.10;99.90
5017;DHT22;2527;50.892;16.706;2024-03-23T14:29:02;14.00;99.90
5017;DHT22;2527;50.892;16.706;2024-03-23T14:31:28;13.90;99.90
5017;DHT22;2527;50.892;16.706;2024-03-23T14:33:54;13.80;99.90
5017;DHT22;2527;50.892;16.706;2024-03-23T14:36:19;13.70;99.90
5017;DHT22;2527;50.892;16.706;2024-03-23T14:38:48;13.60;99.90
5017;DHT22;2527;50.892;16.706;2024-03-23T14:41:14;13.50;99.90
5017;DHT22;2527;50.892;16.706;2024-03-23T14:43:40;13.50;99.90
5017;DHT22;2527;50.892;16.706;2024-03-23T14:46:06;13.50;99.90
5017;DHT22;2527;50.892;16.706;2024-03-23T14:48:32;13.50;99.90
5017;DHT22;2527;50.892;16.706;2024-03-23T14:51:00;13.40;99.90
5017;DHT22;2527;50.892;16.706;2024-03-23T14:53:27;13.30;99.90
5017;DHT22;2527;50.892;16.706;2024-03-23T14:55:56;13.30;99.90
5017;DHT22;2527;50.892;16.706;2024-03-23T14:58:21;13.20;99.90
5017;DHT22;2527;50.892;16.706;2024-03-23T15:00:51;13.10;99.90
5017;DHT22;2527;50.892;16.706;2024-03-23T15:03:20;13.00;99.90
5017;DHT22;2527;50.892;16.706;2024-03-23T15:05:53;12.90;99.90
5017;DHT22;2527;50.892;16.706;2024-03-23T15:08:19;12.80;99.90
5017;DHT22;2527;50.892;16.706;2024-03-23T15:10:45;12.80;99.90
5017;DHT22;2527;50.892;16.706;2024-03-23T15:13:11;12.70;99.90
5017;DHT22;2527;50.892;16.706;2024-03-23T15:15:40;12.70;99.90
5017;DHT22;2527;50.892;16.706;2024-03-23T15:18:09;12.60;99.90
5017;DHT22;2527;50.892;16.706;2024-03-23T15:20:36;12.60;99.90
5017;DHT22;2527;50.892;16.706;2024-03-23T15:23:06;12.60;99.90
5017;DHT22;2527;50.892;16.706;2024-03-23T15:25:31;12.50;99.90
5017;DHT22;2527;50.892;16.706;2024-03-23T15:27:57;12.50;99.90
5017;DHT22;2527;50.892;16.706;2024-03-23T15:30:25;12.50;99.90
5017;DHT22;2527;50.892;16.706;2024-03-23T15:32:50;12.50;99.90
5017;DHT22;2527;50.892;16.706;2024-03-23T15:35:17;12.40;99.90
5017;DHT22;2527;50.892;16.706;2024-03-23T15:37:49;12.40;99.90
5017;DHT22;2527;50.892;16.706;2024-03-23T15:40:15;12.30;99.90
5017;DHT22;2527;50.892;16.706;2024-03-23T15:42:41;12.30;99.90
5017;DHT22;2527;50.892;16.706;2024-03-23T15:45:07;12.20;99.90
5017;DHT22;2527;50.892;16.706;2024-03-23T15:47:34;12.20;99.90
5017;DHT22;2527;50.892;16.706;2024-03-23T15:50:00;12.20;99.90
5017;DHT22;2527;50.892;16.706;2024-03-23T15:52:26;12.20;99.90
5017;DHT22;2527;50.892;16.706;2024-03-23T15:54:51;12.10;99.90
5017;DHT22;2527;50.892;16.706;2024-03-23T15:57:17;12.10;99.90
5017;DHT22;2527;50.892;16.706;2024-03-23T15:59:43;12.10;99.90
5017;DHT22;2527;50.892;16.706;2024-03-23T16:02:09;12.10;99.90
5017;DHT22;2527;50.892;16.706;2024-03-23T16:04:35;12.10;99.90
5017;DHT22;2527;50.892;16.706;2024-03-23T16:07:01;12.00;99.90
5017;DHT22;2527;50.892;16.706;2024-03-23T16:09:27;12.00;99.90
5017;DHT22;2527;50.892;16.706;2024-03-23T16:11:56;12.00;99.90
5017;DHT22;2527;50.892;16.706;2024-03-23T16:14:21;12.00;99.90
5017;DHT22;2527;50.892;16.706;2024-03-23T16:16:48;10.90;99.90
5017;DHT22;2527;50.892;16.706;2024-03-23T16:19:14;12.00;99.90
5017;DHT22;2527;50.892;16.706;2024-03-23T16:21:40;12.00;99.90
5017;DHT22;2527;50.892;16.706;2024-03-23T16:24:06;12.00;99.90
5017;DHT22;2527;50.892;16.706;2024-03-23T16:26:33;12.00;99.90
5017;DHT22;2527;50.892;16.706;2024-03-23T16:28:59;12.00;99.90
5017;DHT22;2527;50.892;16.706;2024-03-23T16:31:25;11.90;99.90
5017;DHT22;2527;50.892;16.706;2024-03-23T16:33:50;11.90;99.90
5017;DHT22;2527;50.892;16.706;2024-03-23T16:36:17;11.90;99.90
5017;DHT22;2527;50.892;16.706;2024-03-23T16:38:43;11.90;99.90
5017;DHT22;2527;50.892;16.706;2024-03-23T16:41:11;11.90;99.90
5017;DHT22;2527;50.892;16.706;2024-03-23T16:43:44;11.90;99.90